sensor_id;sensor_type;location;lat;lon;timestamp;temperature;humidity
13496;DHT22;6820;49.374;8.452;2022-08-16T00:02:53;22.29;99.99
13496;DHT22;6820;49.374;8.452;2022-08-16T00:06:56;22.27;99.99
13496;DHT22;6820;49.374;8.452;2022-08-16T00:10:58;22.21;99.99
13496;DHT22;6820;49.374;8.452;2022-08-16T00:15:00;22.21;99.99
13496;DHT22;6820;49.374;8.452;2022-08-16T00:19:13;22.17;99.99
13496;DHT22;6820;49.374;8.452;2022-08-16T00:23:17;22.12;99.99
13496;DHT22;6820;49.374;8.452;2022-08-16T00:27:34;22.06;99.99
13496;DHT22;6820;49.374;8.452;2022-08-16T00:31:37;22.05;99.99
13496;DHT22;6820;49.374;8.452;2022-08-16T00:35:59;21.98;99.99
13496;DHT22;6820;49.374;8.452;2022-08-16T00:40:02;22.01;99.99
13496;DHT22;6820;49.374;8.452;2022-08-16T00:44:26;21.99;99.99
13496;DHT22;6820;49.374;8.452;2022-08-16T00:48:33;21.94;99.99
13496;DHT22;6820;49.374;8.452;2022-08-16T00:52:46;21.91;99.99
13496;DHT22;6820;49.374;8.452;2022-08-16T00:56:52;21.86;99.99
13496;DHT22;6820;49.374;8.452;2022-08-16T01:00:59;21.82;99.99
13496;DHT22;6820;49.374;8.452;2022-08-16T01:05:00;21.79;99.99
13496;DHT22;6820;49.374;8.452;2022-08-16T01:09:11;21.77;99.99
13496;DHT22;6820;49.374;8.452;2022-08-16T01:13:22;21.74;99.99
13496;DHT22;6820;49.374;8.452;2022-08-16T01:17:27;21.70;99.99
13496;DHT22;6820;49.374;8.452;2022-08-16T01:21:54;21.70;99.99
13496;DHT22;6820;49.374;8.452;2022-08-16T01:26:19;21.64;99.99
13496;DHT22;6820;49.374;8.452;2022-08-16T01:30:39;21.59;99.99
13496;DHT22;6820;49.374;8.452;2022-08-16T01:34:50;21.56;99.99
13496;DHT22;6820;49.374;8.452;2022-08-16T01:38:57;21.52;99.99
13496;DHT22;6820;49.374;8.452;2022-08-16T01:43:00;21.48;99.99
13496;DHT22;6820;49.374;8.452;2022-08-16T01:47:02;21.49;99.99
13496;DHT22;6820;49.374;8.452;2022-08-16T01:51:04;21.43;99.99
13496;DHT22;6820;49.374;8.452;2022-08-16T01:55:19;21.42;99.99
13496;DHT22;6820;49.374;8.452;2022-08-16T01:59:23;21.38;99.99
13496;DHT22;6820;49.374;8.452;2022-08-16T02:03:25;21.37;99.99
13496;DHT22;6820;49.374;8.452;2022-08-16T02:07:27;21.34;99.99
13496;DHT22;6820;49.374;8.452;2022-08-16T02:11:31;21.28;99.99
13496;DHT22;6820;49.374;8.452;2022-08-16T02:15:49;21.26;99.99
13496;DHT22;6820;49.374;8.452;2022-08-16T02:19:52;21.21;99.99
13496;DHT22;6820;49.374;8.452;2022-08-16T02:24:00;21.21;99.99
13496;DHT22;6820;49.374;8.452;2022-08-16T02:28:22;21.19;99.99
13496;DHT22;6820;49.374;8.452;2022-08-16T02:32:25;21.16;99.99
13496;DHT22;6820;49.374;8.452;2022-08-16T02:36:47;21.13;99.99
13496;DHT22;6820;49.374;8.452;2022-08-16T02:40:53;21.09;99.99
13496;DHT22;6820;49.374;8.452;2022-08-16T02:44:56;21.06;99.99
13496;DHT22;6820;49.374;8.452;2022-08-16T02:48:59;21.03;99.99
13496;DHT22;6820;49.374;8.452;2022-08-16T02:53:02;21.01;99.99
13496;DHT22;6820;49.374;8.452;2022-08-16T02:57:04;21.00;99.99
13496;DHT22;6820;49.374;8.452;2022-08-16T03:01:08;21.00;99.99
13496;DHT22;6820;49.374;8.452;2022-08-16T03:05:25;20.96;99.99
13496;DHT22;6820;49.374;8.452;2022-08-16T03:09:33;20.94;99.99
13496;DHT22;6820;49.374;8.452;2022-08-16T03:13:35;20.93;99.99
13496;DHT22;6820;49.374;8.452;2022-08-16T03:17:42;20.93;99.99
13496;DHT22;6820;49.374;8.452;2022-08-16T03:21:55;20.91;99.99
13496;DHT22;6820;49.374;8.452;2022-08-16T03:25:57;20.88;99.99
13496;DHT22;6820;49.374;8.452;2022-08-16T03:30:05;20.87;99.99
13496;DHT22;6820;49.374;8.452;2022-08-16T03:34:23;20.87;99.99
13496;DHT22;6820;49.374;8.452;2022-08-16T03:38:26;20.85;99.99
13496;DHT22;6820;49.374;8.452;2022-08-16T03:42:43;20.83;99.99
13496;DHT22;6820;49.374;8.452;2022-08-16T03:47:05;20.81;99.99
13496;DHT22;6820;49.374;8.452;2022-08-16T03:51:11;20.71;99.99
13496;DHT22;6820;49.374;8.452;2022-08-16T03:55:20;20.73;99.99
13496;DHT22;6820;49.374;8.452;2022-08-16T03:59:29;20.72;99.99
13496;DHT22;6820;49.374;8.452;2022-08-16T04:03:36;20.68;99.99
13496;DHT22;6820;49.374;8.452;2022-08-16T04:07:38;20.63;99.99
13496;DHT22;6820;49.374;8.452;2022-08-16T04:11:40;20.63;99.99
13496;DHT22;6820;49.374;8.452;2022-08-16T04:15:42;20.58;99.99
13496;DHT22;6820;49.374;8.452;2022-08-16T04:19:56;20.58;99.99
13496;DHT22;6820;49.374;8.452;2022-08-16T04:24:00;20.56;99.99
13496;DHT22;6820;49.374;8.452;2022-08-16T04:28:03;20.56;99.99
13496;DHT22;6820;49.374;8.452;2022-08-16T04:32:25;20.56;99.99
13496;DHT22;6820;49.374;8.452;2022-08-16T04:36:27;20.57;99.99
13496;DHT22;6820;49.374;8.452;2022-08-16T04:40:29;20.60;99.99
13496;DHT22;6820;49.374;8.452;2022-08-16T04:44:32;20.66;99.99
13496;DHT22;6820;49.374;8.452;2022-08-16T04:48:54;20.71;99.99
13496;DHT22;6820;49.374;8.452;2022-08-16T04:52:58;20.78;99.99
13496;DHT22;6820;49.374;8.452;2022-08-16T04:57:03;20.79;99.99
13496;DHT22;6820;49.374;8.452;2022-08-16T05:01:07;20.82;99.99
13496;DHT22;6820;49.374;8.452;2022-08-16T05:05:10;20.87;99.99
13496;DHT22;6820;49.374;8.452;2022-08-16T05:09:18;20.91;99.99
13496;DHT22;6820;49.374;8.452;2022-08-16T05:13:24;20.93;99.99
13496;DHT22;6820;49.374;8.452;2022-08-16T05:17:44;20.94;99.99
13496;DHT22;6820;49.374;8.452;2022-08-16T05:21:48;21.01;99.99
13496;DHT22;6820;49.374;8.452;2022-08-16T05:25:52;21.08;99.99
13496;DHT22;6820;49.374;8.452;2022-08-16T05:29:54;21.13;99.99
13496;DHT22;6820;49.374;8.452;2022-08-16T05:33:59;21.16;99.99
13496;DHT22;6820;49.374;8.452;2022-08-16T05:38:06;21.21;99.99
13496;DHT22;6820;49.374;8.452;2022-08-16T05:42:31;21.30;99.99
13496;DHT22;6820;49.374;8.452;2022-08-16T05:46:38;21.38;99.99
13496;DHT22;6820;49.374;8.452;2022-08-16T05:50:49;21.46;99.99
13496;DHT22;6820;49.374;8.452;2022-08-16T05:54:54;21.49;99.99
13496;DHT22;6820;49.374;8.452;2022-08-16T05:59:05;21.52;99.99
13496;DHT22;6820;49.374;8.452;2022-08-16T06:03:08;21.59;99.99
13496;DHT22;6820;49.374;8.452;2022-08-16T06:07:31;21.68;99.99
13496;DHT22;6820;49.374;8.452;2022-08-16T06:11:51;21.74;99.99
13496;DHT22;6820;49.374;8.452;2022-08-16T06:15:52;21.75;99.99
13496;DHT22;6820;49.374;8.452;2022-08-16T06:19:54;21.79;99.99
13496;DHT22;6820;49.374;8.452;2022-08-16T06:23:57;22.02;99.99
13496;DHT22;6820;49.374;8.452;2022-08-16T06:28:03;21.83;99.99
13496;DHT22;6820;49.374;8.452;2022-08-16T06:32:10;21.86;99.99
13496;DHT22;6820;49.374;8.452;2022-08-16T06:36:28;21.99;99.99
13496;DHT22;6820;49.374;8.452;2022-08-16T06:40:50;22.19;99.99
13496;DHT22;6820;49.374;8.452;2022-08-16T06:44:52;22.33;99.99
13496;DHT22;6820;49.374;8.452;2022-08-16T06:49:12;22.48;99.99
13496;DHT22;6820;49.374;8.452;2022-08-16T06:53:14;22.61;99.99
13496;DHT22;6820;49.374;8.452;2022-08-16T06:57:35;22.72;99.99
13496;DHT22;6820;49.374;8.452;2022-08-16T07:01:40;22.78;99.99
13496;DHT22;6820;49.374;8.452;2022-08-16T07:05:47;22.88;99.99
13496;DHT22;6820;49.374;8.452;2022-08-16T07:09:58;22.97;99.99
13496;DHT22;6820;49.374;8.452;2022-08-16T07:14:09;23.09;99.99
13496;DHT22;6820;49.374;8.452;2022-08-16T07:18:27;23.22;99.99
13496;DHT22;6820;49.374;8.452;2022-08-16T07:22:31;23.38;99.99
13496;DHT22;6820;49.374;8.452;2022-08-16T07:26:57;23.50;99.99
13496;DHT22;6820;49.374;8.452;2022-08-16T07:31:01;23.52;99.99
13496;DHT22;6820;49.374;8.452;2022-08-16T07:35:07;23.50;99.99
13496;DHT22;6820;49.374;8.452;2022-08-16T07:39:09;23.45;99.99
13496;DHT22;6820;49.374;8.452;2022-08-16T07:43:12;23.44;99.99
13496;DHT22;6820;49.374;8.452;2022-08-16T07:47:14;23.45;99.99
13496;DHT22;6820;49.374;8.452;2022-08-16T07:51:17;23.47;99.99
13496;DHT22;6820;49.374;8.452;2022-08-16T07:55:19;23.53;99.99
13496;DHT22;6820;49.374;8.452;2022-08-16T07:59:20;23.60;99.99
13496;DHT22;6820;49.374;8.452;2022-08-16T08:03:26;23.63;99.99
13496;DHT22;6820;49.374;8.452;2022-08-16T08:07:42;23.77;99.99
13496;DHT22;6820;49.374;8.452;2022-08-16T08:11:46;23.99;99.99
13496;DHT22;6820;49.374;8.452;2022-08-16T08:16:04;24.18;99.99
13496;DHT22;6820;49.374;8.452;2022-08-16T08:20:19;24.34;99.99
13496;DHT22;6820;49.374;8.452;2022-08-16T08:24:29;24.56;99.99
13496;DHT22;6820;49.374;8.452;2022-08-16T08:28:37;24.89;99.99
13496;DHT22;6820;49.374;8.452;2022-08-16T08:32:41;25.19;99.99
13496;DHT22;6820;49.374;8.452;2022-08-16T08:37:00;25.39;99.99
13496;DHT22;6820;49.374;8.452;2022-08-16T08:41:07;25.56;99.99
13496;DHT22;6820;49.374;8.452;2022-08-16T08:45:10;25.53;99.99
13496;DHT22;6820;49.374;8.452;2022-08-16T08:49:33;25.57;99.99
13496;DHT22;6820;49.374;8.452;2022-08-16T08:53:56;25.67;99.99
13496;DHT22;6820;49.374;8.452;2022-08-16T08:58:02;25.91;99.99
13496;DHT22;6820;49.374;8.452;2022-08-16T09:02:11;26.12;99.99
13496;DHT22;6820;49.374;8.452;2022-08-16T09:06:24;26.23;99.99
13496;DHT22;6820;49.374;8.452;2022-08-16T09:10:27;26.34;99.99
13496;DHT22;6820;49.374;8.452;2022-08-16T09:14:35;26.36;99.78
13496;DHT22;6820;49.374;8.452;2022-08-16T09:18:39;26.41;99.68
13496;DHT22;6820;49.374;8.452;2022-08-16T09:22:41;26.57;98.69
13496;DHT22;6820;49.374;8.452;2022-08-16T09:26:44;26.50;98.34
13496;DHT22;6820;49.374;8.452;2022-08-16T09:30:53;26.24;98.64
13496;DHT22;6820;49.374;8.452;2022-08-16T09:34:55;26.03;98.54
13496;DHT22;6820;49.374;8.452;2022-08-16T09:38:59;25.93;98.83
13496;DHT22;6820;49.374;8.452;2022-08-16T09:43:02;25.86;98.58
13496;DHT22;6820;49.374;8.452;2022-08-16T09:47:05;26.08;98.19
13496;DHT22;6820;49.374;8.452;2022-08-16T09:51:11;26.36;98.04
13496;DHT22;6820;49.374;8.452;2022-08-16T09:55:14;26.76;97.20
13496;DHT22;6820;49.374;8.452;2022-08-16T09:59:16;27.12;95.72
13496;DHT22;6820;49.374;8.452;2022-08-16T10:03:19;27.30;94.79
13496;DHT22;6820;49.374;8.452;2022-08-16T10:07:25;27.24;94.64
13496;DHT22;6820;49.374;8.452;2022-08-16T10:11:45;27.43;94.64
13496;DHT22;6820;49.374;8.452;2022-08-16T10:16:19;27.74;93.65
13496;DHT22;6820;49.374;8.452;2022-08-16T10:20:22;27.68;92.57
13496;DHT22;6820;49.374;8.452;2022-08-16T10:24:27;27.65;94.10
13496;DHT22;6820;49.374;8.452;2022-08-16T10:28:29;27.55;93.80
13496;DHT22;6820;49.374;8.452;2022-08-16T10:32:39;27.52;93.51
13496;DHT22;6820;49.374;8.452;2022-08-16T10:36:41;27.83;92.91
13496;DHT22;6820;49.374;8.452;2022-08-16T10:40:44;28.32;92.28
13496;DHT22;6820;49.374;8.452;2022-08-16T10:44:47;28.54;91.40
13496;DHT22;6820;49.374;8.452;2022-08-16T10:48:55;28.85;89.78
13496;DHT22;6820;49.374;8.452;2022-08-16T10:52:56;29.03;89.34
13496;DHT22;6820;49.374;8.452;2022-08-16T10:57:00;29.21;88.90
13496;DHT22;6820;49.374;8.452;2022-08-16T11:01:04;28.98;88.76
13496;DHT22;6820;49.374;8.452;2022-08-16T11:05:29;29.18;88.51
13496;DHT22;6820;49.374;8.452;2022-08-16T11:09:52;29.21;88.46
13496;DHT22;6820;49.374;8.452;2022-08-16T11:13:54;29.15;87.97
13496;DHT22;6820;49.374;8.452;2022-08-16T11:18:06;29.07;88.21
13496;DHT22;6820;49.374;8.452;2022-08-16T11:22:28;28.98;88.70
13496;DHT22;6820;49.374;8.452;2022-08-16T11:26:49;28.94;87.82
13496;DHT22;6820;49.374;8.452;2022-08-16T11:31:12;28.69;87.92
13496;DHT22;6820;49.374;8.452;2022-08-16T11:35:17;28.62;88.35
13496;DHT22;6820;49.374;8.452;2022-08-16T11:39:41;28.58;89.28
13496;DHT22;6820;49.374;8.452;2022-08-16T11:43:43;28.55;88.69
13496;DHT22;6820;49.374;8.452;2022-08-16T11:47:47;29.07;87.60
13496;DHT22;6820;49.374;8.452;2022-08-16T11:51:49;29.45;86.44
13496;DHT22;6820;49.374;8.452;2022-08-16T11:55:51;29.67;85.47
13496;DHT22;6820;49.374;8.452;2022-08-16T11:59:56;29.85;84.93
13496;DHT22;6820;49.374;8.452;2022-08-16T12:03:58;29.70;84.54
13496;DHT22;6820;49.374;8.452;2022-08-16T12:08:01;29.41;85.23
13496;DHT22;6820;49.374;8.452;2022-08-16T12:12:05;29.15;85.66
13496;DHT22;6820;49.374;8.452;2022-08-16T12:16:08;29.10;86.34
13496;DHT22;6820;49.374;8.452;2022-08-16T12:20:14;29.54;85.16
13496;DHT22;6820;49.374;8.452;2022-08-16T12:24:19;29.92;83.80
13496;DHT22;6820;49.374;8.452;2022-08-16T12:28:24;30.16;82.92
13496;DHT22;6820;49.374;8.452;2022-08-16T12:32:45;30.37;82.20
13496;DHT22;6820;49.374;8.452;2022-08-16T12:36:53;30.18;82.39
13496;DHT22;6820;49.374;8.452;2022-08-16T12:40:55;30.46;81.70
13496;DHT22;6820;49.374;8.452;2022-08-16T12:44:59;30.40;81.86
13496;DHT22;6820;49.374;8.452;2022-08-16T12:49:03;30.07;82.55
13496;DHT22;6820;49.374;8.452;2022-08-16T12:53:06;30.13;82.53
13496;DHT22;6820;49.374;8.452;2022-08-16T12:57:10;30.64;81.65
13496;DHT22;6820;49.374;8.452;2022-08-16T13:01:21;31.07;81.04
13496;DHT22;6820;49.374;8.452;2022-08-16T13:05:27;31.38;79.91
13496;DHT22;6820;49.374;8.452;2022-08-16T13:09:36;31.62;79.25
13496;DHT22;6820;49.374;8.452;2022-08-16T13:13:47;31.65;78.92
13496;DHT22;6820;49.374;8.452;2022-08-16T13:17:55;31.10;79.70
13496;DHT22;6820;49.374;8.452;2022-08-16T13:21:59;31.04;80.21
13496;DHT22;6820;49.374;8.452;2022-08-16T13:26:02;30.67;80.90
13496;DHT22;6820;49.374;8.452;2022-08-16T13:30:08;30.36;80.74
13496;DHT22;6820;49.374;8.452;2022-08-16T13:34:30;30.06;82.00
13496;DHT22;6820;49.374;8.452;2022-08-16T13:38:33;29.81;81.94
13496;DHT22;6820;49.374;8.452;2022-08-16T13:42:38;30.13;81.78
13496;DHT22;6820;49.374;8.452;2022-08-16T13:46:43;30.01;81.35
13496;DHT22;6820;49.374;8.452;2022-08-16T13:50:47;29.74;82.23
13496;DHT22;6820;49.374;8.452;2022-08-16T13:54:52;29.52;82.47
13496;DHT22;6820;49.374;8.452;2022-08-16T13:58:53;29.51;83.00
13496;DHT22;6820;49.374;8.452;2022-08-16T14:02:56;29.55;82.61
13496;DHT22;6820;49.374;8.452;2022-08-16T14:07:00;29.60;82.61
13496;DHT22;6820;49.374;8.452;2022-08-16T14:11:03;29.64;83.40
13496;DHT22;6820;49.374;8.452;2022-08-16T14:15:12;29.95;83.11
13496;DHT22;6820;49.374;8.452;2022-08-16T14:19:17;30.82;80.27
13496;DHT22;6820;49.374;8.452;2022-08-16T14:23:22;31.52;78.78
13496;DHT22;6820;49.374;8.452;2022-08-16T14:27:25;32.12;76.50
13496;DHT22;6820;49.374;8.452;2022-08-16T14:31:29;32.35;75.51
13496;DHT22;6820;49.374;8.452;2022-08-16T14:35:33;32.47;75.38
13496;DHT22;6820;49.374;8.452;2022-08-16T14:39:49;32.83;75.28
13496;DHT22;6820;49.374;8.452;2022-08-16T14:43:52;32.81;74.95
13496;DHT22;6820;49.374;8.452;2022-08-16T14:47:53;32.40;76.03
13496;DHT22;6820;49.374;8.452;2022-08-16T14:51:58;32.76;74.69
13496;DHT22;6820;49.374;8.452;2022-08-16T14:56:46;33.17;74.07
13496;DHT22;6820;49.374;8.452;2022-08-16T15:00:55;33.22;73.50
13496;DHT22;6820;49.374;8.452;2022-08-16T15:04:59;33.55;73.70
13496;DHT22;6820;49.374;8.452;2022-08-16T15:09:03;33.74;73.18
13496;DHT22;6820;49.374;8.452;2022-08-16T15:13:05;33.89;71.78
13496;DHT22;6820;49.374;8.452;2022-08-16T15:17:10;33.99;70.37
13496;DHT22;6820;49.374;8.452;2022-08-16T15:21:13;34.08;70.37
13496;DHT22;6820;49.374;8.452;2022-08-16T15:25:19;34.30;69.98
13496;DHT22;6820;49.374;8.452;2022-08-16T15:29:30;34.38;70.53
13496;DHT22;6820;49.374;8.452;2022-08-16T15:33:33;34.42;70.01
13496;DHT22;6820;49.374;8.452;2022-08-16T15:37:44;34.53;69.33
13496;DHT22;6820;49.374;8.452;2022-08-16T15:41:56;34.61;68.65
13496;DHT22;6820;49.374;8.452;2022-08-16T15:46:01;34.53;68.42
13496;DHT22;6820;49.374;8.452;2022-08-16T15:50:36;34.60;68.74
13496;DHT22;6820;49.374;8.452;2022-08-16T15:54:41;34.52;68.62
13496;DHT22;6820;49.374;8.452;2022-08-16T15:58:54;34.49;68.74
13496;DHT22;6820;49.374;8.452;2022-08-16T16:03:00;34.46;68.65
13496;DHT22;6820;49.374;8.452;2022-08-16T16:07:11;34.43;68.94
13496;DHT22;6820;49.374;8.452;2022-08-16T16:11:14;34.40;69.13
13496;DHT22;6820;49.374;8.452;2022-08-16T16:15:18;34.33;69.23
13496;DHT22;6820;49.374;8.452;2022-08-16T16:19:24;34.15;69.46
13496;DHT22;6820;49.374;8.452;2022-08-16T16:23:30;34.11;69.46
13496;DHT22;6820;49.374;8.452;2022-08-16T16:27:34;34.00;69.56
13496;DHT22;6820;49.374;8.452;2022-08-16T16:31:36;33.96;69.69
13496;DHT22;6820;49.374;8.452;2022-08-16T16:35:39;33.89;70.18
13496;DHT22;6820;49.374;8.452;2022-08-16T16:39:47;33.74;70.47
13496;DHT22;6820;49.374;8.452;2022-08-16T16:43:51;33.60;70.61
13496;DHT22;6820;49.374;8.452;2022-08-16T16:47:54;33.45;70.80
13496;DHT22;6820;49.374;8.452;2022-08-16T16:52:03;33.28;71.32
13496;DHT22;6820;49.374;8.452;2022-08-16T16:56:08;33.17;71.65
13496;DHT22;6820;49.374;8.452;2022-08-16T17:00:27;33.02;71.65
13496;DHT22;6820;49.374;8.452;2022-08-16T17:04:39;32.88;71.98
13496;DHT22;6820;49.374;8.452;2022-08-16T17:08:40;32.77;72.17
13496;DHT22;6820;49.374;8.452;2022-08-16T17:12:44;32.62;72.70
13496;DHT22;6820;49.374;8.452;2022-08-16T17:16:47;32.50;73.28
13496;DHT22;6820;49.374;8.452;2022-08-16T17:20:49;32.31;73.03
13496;DHT22;6820;49.374;8.452;2022-08-16T17:24:53;32.06;73.65
13496;DHT22;6820;49.374;8.452;2022-08-16T17:28:55;31.82;73.79
13496;DHT22;6820;49.374;8.452;2022-08-16T17:33:04;31.60;74.70
13496;DHT22;6820;49.374;8.452;2022-08-16T17:37:07;31.40;74.84
13496;DHT22;6820;49.374;8.452;2022-08-16T17:41:09;31.23;75.52
13496;DHT22;6820;49.374;8.452;2022-08-16T17:45:12;31.05;75.46
13496;DHT22;6820;49.374;8.452;2022-08-16T17:49:13;30.88;76.09
13496;DHT22;6820;49.374;8.452;2022-08-16T17:53:15;30.70;76.58
13496;DHT22;6820;49.374;8.452;2022-08-16T17:57:17;30.54;77.11
13496;DHT22;6820;49.374;8.452;2022-08-16T18:01:18;30.38;77.93
13496;DHT22;6820;49.374;8.452;2022-08-16T18:05:26;30.21;78.66
13496;DHT22;6820;49.374;8.452;2022-08-16T18:09:28;30.07;79.05
13496;DHT22;6820;49.374;8.452;2022-08-16T18:13:31;29.92;79.68
13496;DHT22;6820;49.374;8.452;2022-08-16T18:17:33;29.79;80.66
13496;DHT22;6820;49.374;8.452;2022-08-16T18:21:35;29.66;81.29
13496;DHT22;6820;49.374;8.452;2022-08-16T18:25:56;29.51;81.98
13496;DHT22;6820;49.374;8.452;2022-08-16T18:29:59;29.39;82.42
13496;DHT22;6820;49.374;8.452;2022-08-16T18:34:01;29.26;82.75
13496;DHT22;6820;49.374;8.452;2022-08-16T18:38:03;29.14;83.54
13496;DHT22;6820;49.374;8.452;2022-08-16T18:42:06;29.00;84.86
13496;DHT22;6820;49.374;8.452;2022-08-16T18:46:09;28.88;85.94
13496;DHT22;6820;49.374;8.452;2022-08-16T18:50:11;28.76;86.28
13496;DHT22;6820;49.374;8.452;2022-08-16T18:54:14;28.64;86.58
13496;DHT22;6820;49.374;8.452;2022-08-16T18:58:18;28.50;87.41
13496;DHT22;6820;49.374;8.452;2022-08-16T19:02:24;28.39;87.60
13496;DHT22;6820;49.374;8.452;2022-08-16T19:06:46;28.28;88.24
13496;DHT22;6820;49.374;8.452;2022-08-16T19:10:48;28.21;89.23
13496;DHT22;6820;49.374;8.452;2022-08-16T19:14:51;28.14;89.82
13496;DHT22;6820;49.374;8.452;2022-08-16T19:18:52;28.06;90.55
13496;DHT22;6820;49.374;8.452;2022-08-16T19:22:54;27.96;91.64
13496;DHT22;6820;49.374;8.452;2022-08-16T19:27:06;27.87;92.28
13496;DHT22;6820;49.374;8.452;2022-08-16T19:31:15;27.80;92.77
13496;DHT22;6820;49.374;8.452;2022-08-16T19:35:20;27.72;93.76
13496;DHT22;6820;49.374;8.452;2022-08-16T19:39:22;27.66;94.15
13496;DHT22;6820;49.374;8.452;2022-08-16T19:43:23;27.55;94.49
13496;DHT22;6820;49.374;8.452;2022-08-16T19:47:25;27.45;95.09
13496;DHT22;6820;49.374;8.452;2022-08-16T19:51:27;27.35;95.73
13496;DHT22;6820;49.374;8.452;2022-08-16T19:55:29;27.28;96.22
13496;DHT22;6820;49.374;8.452;2022-08-16T19:59:31;27.27;96.52
13496;DHT22;6820;49.374;8.452;2022-08-16T20:03:41;27.21;96.62
13496;DHT22;6820;49.374;8.452;2022-08-16T20:07:42;27.15;97.06
13496;DHT22;6820;49.374;8.452;2022-08-16T20:11:44;27.03;97.16
13496;DHT22;6820;49.374;8.452;2022-08-16T20:15:47;27.01;97.45
13496;DHT22;6820;49.374;8.452;2022-08-16T20:19:49;26.93;97.45
13496;DHT22;6820;49.374;8.452;2022-08-16T20:23:51;26.87;97.90
13496;DHT22;6820;49.374;8.452;2022-08-16T20:28:10;26.81;98.39
13496;DHT22;6820;49.374;8.452;2022-08-16T20:32:32;26.73;99.29
13496;DHT22;6820;49.374;8.452;2022-08-16T20:36:46;26.60;99.99
13496;DHT22;6820;49.374;8.452;2022-08-16T20:40:47;26.53;99.99
13496;DHT22;6820;49.374;8.452;2022-08-16T20:44:49;26.47;99.99
13496;DHT22;6820;49.374;8.452;2022-08-16T20:48:54;26.38;99.99
13496;DHT22;6820;49.374;8.452;2022-08-16T20:52:55;26.29;99.99
13496;DHT22;6820;49.374;8.452;2022-08-16T20:56:58;26.24;99.99
13496;DHT22;6820;49.374;8.452;2022-08-16T21:01:00;26.16;99.99
13496;DHT22;6820;49.374;8.452;2022-08-16T21:05:03;26.08;99.99
13496;DHT22;6820;49.374;8.452;2022-08-16T21:09:06;26.04;99.99
13496;DHT22;6820;49.374;8.452;2022-08-16T21:13:09;25.94;99.99
13496;DHT22;6820;49.374;8.452;2022-08-16T21:17:12;25.90;99.99
13496;DHT22;6820;49.374;8.452;2022-08-16T21:21:16;25.85;99.99
13496;DHT22;6820;49.374;8.452;2022-08-16T21:25:17;25.76;99.99
13496;DHT22;6820;49.374;8.452;2022-08-16T21:29:23;25.69;99.99
13496;DHT22;6820;49.374;8.452;2022-08-16T21:33:43;25.66;99.99
13496;DHT22;6820;49.374;8.452;2022-08-16T21:37:55;25.63;99.99
13496;DHT22;6820;49.374;8.452;2022-08-16T21:42:18;25.60;99.99
13496;DHT22;6820;49.374;8.452;2022-08-16T21:46:19;25.59;99.99
13496;DHT22;6820;49.374;8.452;2022-08-16T21:50:21;25.56;99.99
13496;DHT22;6820;49.374;8.452;2022-08-16T21:54:24;25.45;99.99
13496;DHT22;6820;49.374;8.452;2022-08-16T21:58:26;25.35;99.99
13496;DHT22;6820;49.374;8.452;2022-08-16T22:02:28;25.17;99.99
13496;DHT22;6820;49.374;8.452;2022-08-16T22:06:39;25.09;99.99
13496;DHT22;6820;49.374;8.452;2022-08-16T22:10:41;24.94;99.99
13496;DHT22;6820;49.374;8.452;2022-08-16T22:15:03;24.89;99.99
13496;DHT22;6820;49.374;8.452;2022-08-16T22:19:06;24.87;99.99
13496;DHT22;6820;49.374;8.452;2022-08-16T22:23:12;24.83;99.99
13496;DHT22;6820;49.374;8.452;2022-08-16T22:27:15;24.79;99.99
13496;DHT22;6820;49.374;8.452;2022-08-16T22:31:17;24.68;99.99
13496;DHT22;6820;49.374;8.452;2022-08-16T22:35:22;24.70;99.99
13496;DHT22;6820;49.374;8.452;2022-08-16T22:39:24;24.66;99.99
13496;DHT22;6820;49.374;8.452;2022-08-16T22:43:26;24.66;99.99
13496;DHT22;6820;49.374;8.452;2022-08-16T22:47:28;24.61;99.99
13496;DHT22;6820;49.374;8.452;2022-08-16T22:51:30;24.63;99.99
13496;DHT22;6820;49.374;8.452;2022-08-16T22:55:31;24.56;99.99
13496;DHT22;6820;49.374;8.452;2022-08-16T22:59:35;24.52;99.99
13496;DHT22;6820;49.374;8.452;2022-08-16T23:03:37;24.49;99.99
13496;DHT22;6820;49.374;8.452;2022-08-16T23:07:39;24.45;99.99
13496;DHT22;6820;49.374;8.452;2022-08-16T23:11:40;24.42;99.99
13496;DHT22;6820;49.374;8.452;2022-08-16T23:19:45;24.30;99.99
13496;DHT22;6820;49.374;8.452;2022-08-16T23:23:47;24.24;99.99
13496;DHT22;6820;49.374;8.452;2022-08-16T23:27:49;24.16;99.99
13496;DHT22;6820;49.374;8.452;2022-08-16T23:31:55;24.14;99.99
13496;DHT22;6820;49.374;8.452;2022-08-16T23:35:59;24.08;99.99
13496;DHT22;6820;49.374;8.452;2022-08-16T23:40:01;24.02;99.99
13496;DHT22;6820;49.374;8.452;2022-08-16T23:44:05;23.94;99.99
13496;DHT22;6820;49.374;8.452;2022-08-16T23:48:27;23.92;99.99
13496;DHT22;6820;49.374;8.452;2022-08-16T23:57:04;23.92;99.99
